Time,TemperatureF,DewpointF,PressureIn,WindDirection,WindDirectionDegrees,WindSpeedMPH,WindSpeedGustMPH,Humidity,HourlyPrecipIn,Conditions,Clouds,dailyrainin,SoftwareType,DateUTC
2013-10-19 00:00:00,60.9,60.6,29.83,West,267,0.0,0.0,99,0.00,,---,0.00,VWS V14.01,2013-10-19 04:00:00,
2013-10-19 00:10:00,60.9,60.9,29.83,West,267,0.0,0.0,100,0.00,,---,0.00,VWS V14.01,2013-10-19 04:10:00,
2013-10-19 00:20:00,60.9,60.9,29.82,West,267,0.0,0.0,100,0.00,,---,0.00,VWS V14.01,2013-10-19 04:20:00,
2013-10-19 00:30:00,60.7,60.7,29.82,West,267,0.0,0.0,100,0.00,,---,0.00,VWS V14.01,2013-10-19 04:30:00,
2013-10-19 00:39:00,60.7,60.7,29.82,West,267,0.0,0.0,100,0.00,,---,0.00,VWS V14.01,2013-10-19 04:39:00,
2013-10-19 00:40:00,60.9,60.6,29.83,West,267,0.0,0.0,99,0.00,,---,0.00,VWS V14.01,2013-10-19 04:40:00,
2013-10-19 00:50:00,60.7,60.7,29.82,West,267,0.0,0.0,100,0.00,,---,0.00,VWS V14.01,2013-10-19 04:50:00,
2013-10-19 01:00:00,60.5,60.5,29.81,West,267,0.0,0.0,100,0.00,,---,0.00,VWS V14.01,2013-10-19 05:00:00,
2013-10-19 01:10:00,60.5,60.5,29.81,West,267,0.0,0.0,100,0.00,,---,0.00,VWS V14.01,2013-10-19 05:10:00,
2013-10-19 01:20:00,60.5,60.5,29.81,West,267,0.0,0.0,100,0.00,,---,0.00,VWS V14.01,2013-10-19 05:20:00,
2013-10-19 01:30:00,60.5,60.5,29.80,West,267,0.0,0.0,100,0.00,,---,0.00,VWS V14.01,2013-10-19 05:30:00,
2013-10-19 01:39:00,60.5,60.5,29.80,West,267,0.0,0.0,100,0.00,,---,0.00,VWS V14.01,2013-10-19 05:39:00,
2013-10-19 01:40:00,60.7,60.7,29.82,West,267,0.0,0.0,100,0.00,,---,0.00,VWS V14.01,2013-10-19 05:40:00,
2013-10-19 01:50:00,60.4,60.4,29.80,West,267,0.0,0.0,100,0.00,,---,0.00,VWS V14.01,2013-10-19 05:50:00,
2013-10-19 02:00:00,60.4,60.4,29.80,West,267,0.0,0.0,100,0.00,,---,0.00,VWS V14.01,2013-10-19 06:00:00,
2013-10-19 02:09:00,60.4,60.4,29.80,West,267,0.0,0.0,100,0.00,,---,0.00,VWS V14.01,2013-10-19 06:09:00,
2013-10-19 02:10:00,60.5,60.5,29.81,West,267,0.0,0.0,100,0.00,,---,0.00,VWS V14.01,2013-10-19 06:10:00,
2013-10-19 02:20:00,60.4,60.4,29.80,West,267,0.0,0.0,100,0.00,,---,0.00,VWS V14.01,2013-10-19 06:20:00,
2013-10-19 02:29:00,60.4,60.4,29.79,West,267,0.0,0.0,100,0.00,,---,0.00,VWS V14.01,2013-10-19 06:29:00,
2013-10-19 02:30:00,60.5,60.5,29.80,West,267,0.0,0.0,100,0.00,,---,0.00,VWS V14.01,2013-10-19 06:30:00,
2013-10-19 02:39:00,60.4,60.4,29.79,West,267,0.0,0.0,100,0.00,,---,0.00,VWS V14.01,2013-10-19 06:39:00,
2013-10-19 02:40:00,60.5,60.5,29.80,West,267,0.0,0.0,100,0.00,,---,0.00,VWS V14.01,2013-10-19 06:40:00,
2013-10-19 02:50:00,60.5,60.5,29.79,West,267,0.0,0.0,100,0.00,,---,0.00,VWS V14.01,2013-10-19 06:50:00,
2013-10-19 03:00:00,60.5,60.5,29.78,West,267,0.0,0.0,100,0.00,,---,0.00,VWS V14.01,2013-10-19 07:00:00,
2013-10-19 03:10:00,60.5,60.5,29.78,West,267,0.0,0.0,100,0.00,,---,0.00,VWS V14.01,2013-10-19 07:10:00,
2013-10-19 03:19:00,60.5,60.5,29.78,West,267,0.0,0.0,100,0.00,,---,0.00,VWS V14.01,2013-10-19 07:19:00,
2013-10-19 03:20:00,60.4,60.4,29.80,West,267,0.0,0.0,100,0.00,,---,0.00,VWS V14.01,2013-10-19 07:20:00,
2013-10-19 03:30:00,60.5,60.5,29.77,West,267,0.0,0.0,100,0.00,,---,0.00,VWS V14.01,2013-10-19 07:30:00,
2013-10-19 03:39:00,60.4,60.4,29.77,West,267,0.0,0.0,100,0.00,,---,0.00,VWS V14.01,2013-10-19 07:39:00,
2013-10-19 03:40:00,60.4,60.4,29.79,West,267,0.0,0.0,100,0.00,,---,0.00,VWS V14.01,2013-10-19 07:40:00,
2013-10-19 03:50:00,60.4,60.4,29.77,West,267,0.0,0.0,100,0.00,,---,0.00,VWS V14.01,2013-10-19 07:50:00,
2013-10-19 03:59:00,60.4,60.4,29.77,West,267,0.0,0.0,100,0.00,,---,0.00,VWS V14.01,2013-10-19 07:59:00,
2013-10-19 04:00:00,60.5,60.5,29.78,West,267,0.0,0.0,100,0.00,,---,0.00,VWS V14.01,2013-10-19 08:00:00,
2013-10-19 04:09:00,60.4,60.4,29.77,West,267,0.0,0.0,100,0.00,,---,0.00,VWS V14.01,2013-10-19 08:09:00,
2013-10-19 04:10:00,60.5,60.5,29.78,West,267,0.0,0.0,100,0.00,,---,0.00,VWS V14.01,2013-10-19 08:10:00,
2013-10-19 04:19:00,60.4,60.4,29.78,West,267,0.0,0.0,100,0.00,,---,0.00,VWS V14.01,2013-10-19 08:19:00,
2013-10-19 04:20:00,60.5,60.5,29.78,West,267,0.0,0.0,100,0.00,,---,0.00,VWS V14.01,2013-10-19 08:20:00,
2013-10-19 04:30:00,60.5,60.5,29.77,West,267,0.0,0.0,100,0.00,,---,0.00,VWS V14.01,2013-10-19 08:30:00,
2013-10-19 04:39:00,60.5,60.5,29.77,West,267,0.0,0.0,100,0.00,,---,0.00,VWS V14.01,2013-10-19 08:39:00,
2013-10-19 04:40:00,60.4,60.4,29.77,West,267,0.0,0.0,100,0.00,,---,0.00,VWS V14.01,2013-10-19 08:40:00,
2013-10-19 04:49:00,60.4,60.4,29.78,West,267,0.0,0.0,100,0.00,,---,0.00,VWS V14.01,2013-10-19 08:49:00,
2013-10-19 04:50:00,60.4,60.4,29.77,West,267,0.0,0.0,100,0.00,,---,0.00,VWS V14.01,2013-10-19 08:50:00,
2013-10-19 04:59:00,60.4,60.4,29.77,West,267,0.0,0.0,100,0.00,,---,0.00,VWS V14.01,2013-10-19 08:59:00,
2013-10-19 05:00:00,60.4,60.4,29.77,West,267,0.0,0.0,100,0.00,,---,0.00,VWS V14.01,2013-10-19 09:00:00,
2013-10-19 05:09:00,60.4,60.4,29.77,West,267,0.0,0.0,100,0.00,,---,0.00,VWS V14.01,2013-10-19 09:09:00,
2013-10-19 05:10:00,60.4,60.4,29.77,West,267,0.0,0.0,100,0.00,,---,0.00,VWS V14.01,2013-10-19 09:10:00,
2013-10-19 05:19:00,60.2,60.2,29.76,West,267,0.0,0.0,100,0.00,,---,0.00,VWS V14.01,2013-10-19 09:19:00,
2013-10-19 05:20:00,60.4,60.4,29.78,West,267,0.0,0.0,100,0.00,,---,0.00,VWS V14.01,2013-10-19 09:20:00,
2013-10-19 05:29:00,60.1,60.1,29.77,West,267,0.0,0.0,100,0.00,,---,0.00,VWS V14.01,2013-10-19 09:29:00,
2013-10-19 05:30:00,60.4,60.4,29.77,West,267,0.0,0.0,100,0.00,,---,0.00,VWS V14.01,2013-10-19 09:30:00,
2013-10-19 05:40:00,59.9,59.9,29.77,West,267,0.0,0.0,100,0.00,,---,0.00,VWS V14.01,2013-10-19 09:40:00,
2013-10-19 05:49:00,59.9,59.9,29.78,West,267,0.0,0.0,100,0.00,,---,0.00,VWS V14.01,2013-10-19 09:49:00,
2013-10-19 05:50:00,60.4,60.4,29.78,West,267,0.0,0.0,100,0.00,,---,0.00,VWS V14.01,2013-10-19 09:50:00,
2013-10-19 05:59:00,59.9,59.9,29.77,West,267,0.0,0.0,100,0.00,,---,0.00,VWS V14.01,2013-10-19 09:59:00,
2013-10-19 06:00:00,60.4,60.4,29.77,West,267,0.0,0.0,100,0.00,,---,0.00,VWS V14.01,2013-10-19 10:00:00,
2013-10-19 06:09:00,59.9,59.9,29.77,West,267,0.0,0.0,100,0.00,,---,0.00,VWS V14.01,2013-10-19 10:09:00,
2013-10-19 06:10:00,60.4,60.4,29.77,West,267,0.0,0.0,100,0.00,,---,0.00,VWS V14.01,2013-10-19 10:10:00,
2013-10-19 06:20:00,59.9,59.9,29.78,West,267,0.0,0.0,100,0.00,,---,0.00,VWS V14.01,2013-10-19 10:20:00,
2013-10-19 06:30:00,59.9,59.9,29.78,West,267,0.0,0.0,100,0.00,,---,0.00,VWS V14.01,2013-10-19 10:30:00,
2013-10-19 06:39:00,59.9,59.9,29.78,West,267,0.0,0.0,100,0.00,,---,0.00,VWS V14.01,2013-10-19 10:39:00,
2013-10-19 06:40:00,59.9,59.9,29.77,West,267,0.0,0.0,100,0.00,,---,0.00,VWS V14.01,2013-10-19 10:40:00,
2013-10-19 06:50:00,59.9,59.9,29.77,West,267,0.0,0.0,100,0.00,,---,0.00,VWS V14.01,2013-10-19 10:50:00,
2013-10-19 06:59:00,60.1,60.1,29.77,West,267,0.0,0.0,100,0.00,,---,0.00,VWS V14.01,2013-10-19 10:59:00,
2013-10-19 07:00:00,59.9,59.9,29.77,West,267,0.0,0.0,100,0.00,,---,0.00,VWS V14.01,2013-10-19 11:00:00,
2013-10-19 07:09:00,60.1,60.1,29.77,West,267,0.0,0.0,100,0.00,,---,0.00,VWS V14.01,2013-10-19 11:09:00,
2013-10-19 07:10:00,59.9,59.9,29.77,West,267,0.0,0.0,100,0.00,,---,0.00,VWS V14.01,2013-10-19 11:10:00,
2013-10-19 07:19:00,60.1,60.1,29.77,West,267,0.0,0.0,100,0.00,,---,0.00,VWS V14.01,2013-10-19 11:19:00,
2013-10-19 07:20:00,59.9,59.9,29.78,West,267,0.0,0.0,100,0.00,,---,0.00,VWS V14.01,2013-10-19 11:20:00,
2013-10-19 07:29:00,60.1,60.1,29.77,West,267,0.0,0.0,100,0.00,,---,0.00,VWS V14.01,2013-10-19 11:29:00,
2013-10-19 07:30:00,59.9,59.9,29.78,West,267,0.0,0.0,100,0.00,,---,0.00,VWS V14.01,2013-10-19 11:30:00,
2013-10-19 07:40:00,60.1,60.1,29.77,West,267,0.0,0.0,100,0.00,,---,0.00,VWS V14.01,2013-10-19 11:40:00,
2013-10-19 07:49:00,60.1,60.1,29.77,West,267,0.0,0.0,100,0.00,,---,0.00,VWS V14.01,2013-10-19 11:49:00,
2013-10-19 07:50:00,59.9,59.9,29.77,West,267,0.0,0.0,100,0.00,,---,0.00,VWS V14.01,2013-10-19 11:50:00,
2013-10-19 07:59:00,60.1,60.1,29.77,West,267,0.0,0.0,100,0.00,,---,0.00,VWS V14.01,2013-10-19 11:59:00,
2013-10-19 08:00:00,60.1,60.1,29.77,West,267,0.0,0.0,100,0.00,,---,0.00,VWS V14.01,2013-10-19 12:00:00,
2013-10-19 08:09:00,60.2,60.2,29.77,West,267,0.0,0.0,100,0.00,,---,0.00,VWS V14.01,2013-10-19 12:09:00,
2013-10-19 08:10:00,60.1,60.1,29.77,West,267,0.0,0.0,100,0.00,,---,0.00,VWS V14.01,2013-10-19 12:10:00,
2013-10-19 08:20:00,60.2,60.2,29.77,West,267,0.0,0.0,100,0.00,,---,0.00,VWS V14.01,2013-10-19 12:20:00,
2013-10-19 08:29:00,60.4,60.4,29.78,West,267,0.0,0.0,100,0.00,,---,0.00,VWS V14.01,2013-10-19 12:29:00,
2013-10-19 08:30:00,60.1,60.1,29.77,West,267,0.0,0.0,100,0.00,,---,0.00,VWS V14.01,2013-10-19 12:30:00,
2013-10-19 08:40:00,60.4,60.4,29.78,West,267,0.0,0.0,100,0.00,,---,0.00,VWS V14.01,2013-10-19 12:40:00,
2013-10-19 08:49:00,60.5,60.5,29.78,West,267,0.0,0.0,100,0.00,,---,0.00,VWS V14.01,2013-10-19 12:49:00,
2013-10-19 08:50:00,60.1,60.1,29.77,West,267,0.0,0.0,100,0.00,,---,0.00,VWS V14.01,2013-10-19 12:50:00,
2013-10-19 09:00:00,60.5,60.5,29.78,West,267,0.0,0.0,100,0.00,,---,0.00,VWS V14.01,2013-10-19 13:00:00,
2013-10-19 09:09:00,60.7,60.7,29.78,West,267,0.0,0.0,100,0.00,,---,0.00,VWS V14.01,2013-10-19 13:09:00,
2013-10-19 09:10:00,60.2,60.2,29.77,West,267,0.0,0.0,100,0.00,,---,0.00,VWS V14.01,2013-10-19 13:10:00,
2013-10-19 09:19:00,60.9,60.9,29.78,West,267,0.0,0.0,100,0.00,,---,0.00,VWS V14.01,2013-10-19 13:19:00,
2013-10-19 09:20:00,60.2,60.2,29.77,West,267,0.0,0.0,100,0.00,,---,0.00,VWS V14.01,2013-10-19 13:20:00,
2013-10-19 09:29:00,60.9,60.9,29.78,West,267,0.0,0.0,100,0.00,,---,0.00,VWS V14.01,2013-10-19 13:29:00,
2013-10-19 09:30:00,60.4,60.4,29.78,West,267,0.0,0.0,100,0.00,,---,0.00,VWS V14.01,2013-10-19 13:30:00,
2013-10-19 09:39:00,61.0,61.0,29.78,West,267,0.0,0.0,100,0.00,,---,0.00,VWS V14.01,2013-10-19 13:39:00,
2013-10-19 09:40:00,60.4,60.4,29.78,West,267,0.0,0.0,100,0.00,,---,0.00,VWS V14.01,2013-10-19 13:40:00,
2013-10-19 09:49:00,61.3,61.3,29.77,West,267,0.0,0.0,100,0.00,,---,0.00,VWS V14.01,2013-10-19 13:49:00,
2013-10-19 09:50:00,60.5,60.5,29.78,West,267,0.0,0.0,100,0.00,,---,0.00,VWS V14.01,2013-10-19 13:50:00,
2013-10-19 09:59:00,61.5,61.5,29.78,West,267,0.0,0.0,100,0.00,,---,0.00,VWS V14.01,2013-10-19 13:59:00,
2013-10-19 10:00:00,60.5,60.5,29.78,West,267,0.0,0.0,100,0.00,,---,0.00,VWS V14.01,2013-10-19 14:00:00,
2013-10-19 10:09:00,61.8,61.8,29.78,West,267,0.0,0.0,100,0.00,,---,0.00,VWS V14.01,2013-10-19 14:09:00,
2013-10-19 10:10:00,60.7,60.7,29.78,West,267,0.0,0.0,100,0.00,,---,0.00,VWS V14.01,2013-10-19 14:10:00,
2013-10-19 10:19:00,62.1,62.1,29.78,West,267,0.0,0.0,100,0.00,,---,0.00,VWS V14.01,2013-10-19 14:19:00,
2013-10-19 10:20:00,60.9,60.9,29.78,West,267,0.0,0.0,100,0.00,,---,0.00,VWS V14.01,2013-10-19 14:20:00,
2013-10-19 10:29:00,62.3,62.3,29.78,West,267,0.0,0.0,100,0.00,,---,0.00,VWS V14.01,2013-10-19 14:29:00,
2013-10-19 10:30:00,60.9,60.9,29.78,West,267,0.0,0.0,100,0.00,,---,0.00,VWS V14.01,2013-10-19 14:30:00,
2013-10-19 10:39:00,62.6,62.6,29.78,West,267,0.0,0.0,100,0.00,,---,0.00,VWS V14.01,2013-10-19 14:39:00,
2013-10-19 10:40:00,61.0,61.0,29.78,West,267,0.0,0.0,100,0.00,,---,0.00,VWS V14.01,2013-10-19 14:40:00,
2013-10-19 10:49:00,62.7,62.7,29.77,West,267,0.0,0.0,100,0.00,,---,0.00,VWS V14.01,2013-10-19 14:49:00,
2013-10-19 10:50:00,61.3,61.3,29.77,West,267,0.0,0.0,100,0.00,,---,0.00,VWS V14.01,2013-10-19 14:50:00,
2013-10-19 10:59:00,63.1,63.1,29.77,West,267,0.0,0.0,100,0.00,,---,0.00,VWS V14.01,2013-10-19 14:59:00,
2013-10-19 11:00:00,61.5,61.5,29.78,West,267,0.0,0.0,100,0.00,,---,0.00,VWS V14.01,2013-10-19 15:00:00,
2013-10-19 11:09:00,63.2,63.2,29.77,SSW,200,0.0,0.0,100,0.00,,---,0.00,VWS V14.01,2013-10-19 15:09:00,
2013-10-19 11:10:00,61.8,61.8,29.78,West,267,0.0,0.0,100,0.00,,---,0.00,VWS V14.01,2013-10-19 15:10:00,
2013-10-19 11:19:00,63.5,63.5,29.77,SSW,200,0.0,0.0,100,0.00,,---,0.00,VWS V14.01,2013-10-19 15:19:00,
2013-10-19 11:20:00,62.1,62.1,29.78,West,267,0.0,0.0,100,0.00,,---,0.00,VWS V14.01,2013-10-19 15:20:00,
2013-10-19 11:29:00,63.9,63.9,29.77,SSW,200,0.0,0.0,100,0.00,,---,0.00,VWS V14.01,2013-10-19 15:29:00,
2013-10-19 11:30:00,62.3,62.3,29.78,West,267,0.0,0.0,100,0.00,,---,0.00,VWS V14.01,2013-10-19 15:30:00,
2013-10-19 11:39:00,64.2,64.2,29.77,SSW,200,0.0,0.0,100,0.00,,---,0.00,VWS V14.01,2013-10-19 15:39:00,
2013-10-19 11:40:00,62.6,62.6,29.78,West,267,0.0,0.0,100,0.00,,---,0.00,VWS V14.01,2013-10-19 15:40:00,
2013-10-19 11:49:00,64.5,64.5,29.76,SSW,200,0.0,0.0,100,0.00,,---,0.00,VWS V14.01,2013-10-19 15:49:00,
2013-10-19 11:50:00,62.7,62.7,29.77,West,267,0.0,0.0,100,0.00,,---,0.00,VWS V14.01,2013-10-19 15:50:00,
2013-10-19 11:59:00,64.3,64.3,29.76,SE,144,0.0,0.0,100,0.00,,---,0.00,VWS V14.01,2013-10-19 15:59:00,
2013-10-19 12:00:00,63.1,63.1,29.77,West,267,0.0,0.0,100,0.00,,---,0.00,VWS V14.01,2013-10-19 16:00:00,
2013-10-19 12:10:00,64.7,64.7,29.76,SE,144,0.0,0.0,100,0.00,,---,0.00,VWS V14.01,2013-10-19 16:10:00,
2013-10-19 12:19:00,64.8,64.8,29.75,SE,140,0.0,0.0,100,0.00,,---,0.00,VWS V14.01,2013-10-19 16:19:00,
2013-10-19 12:20:00,63.5,63.5,29.77,SSW,200,0.0,0.0,100,0.00,,---,0.00,VWS V14.01,2013-10-19 16:20:00,
2013-10-19 12:29:00,65.2,65.2,29.75,East,89,0.0,0.0,100,0.00,,---,0.00,VWS V14.01,2013-10-19 16:29:00,
2013-10-19 12:30:00,63.9,63.9,29.77,SSW,200,0.0,0.0,100,0.00,,---,0.00,VWS V14.01,2013-10-19 16:30:00,
2013-10-19 12:39:00,65.2,65.2,29.75,East,89,0.0,0.0,100,0.00,,---,0.00,VWS V14.01,2013-10-19 16:39:00,
2013-10-19 12:40:00,64.2,64.2,29.77,SSW,200,0.0,0.0,100,0.00,,---,0.00,VWS V14.01,2013-10-19 16:40:00,
2013-10-19 12:49:00,65.5,65.5,29.74,East,89,0.0,0.0,100,0.00,,---,0.00,VWS V14.01,2013-10-19 16:49:00,
2013-10-19 12:50:00,64.5,64.5,29.76,SSW,200,0.0,0.0,100,0.00,,---,0.00,VWS V14.01,2013-10-19 16:50:00,
2013-10-19 12:59:00,65.6,65.6,29.73,East,88,0.0,1.0,100,0.00,,---,0.00,VWS V14.01,2013-10-19 16:59:00,
2013-10-19 13:00:00,64.3,64.3,29.76,SE,144,0.0,0.0,100,0.00,,---,0.00,VWS V14.01,2013-10-19 17:00:00,
2013-10-19 13:09:00,66.1,66.1,29.73,ENE,78,0.0,0.0,100,0.00,,---,0.00,VWS V14.01,2013-10-19 17:09:00,
2013-10-19 13:10:00,64.7,64.7,29.76,SE,144,0.0,0.0,100,0.00,,---,0.00,VWS V14.01,2013-10-19 17:10:00,
2013-10-19 13:19:00,66.4,66.4,29.72,ENE,78,0.0,3.0,100,0.00,,---,0.00,VWS V14.01,2013-10-19 17:19:00,
2013-10-19 13:20:00,64.8,64.8,29.75,SE,140,0.0,0.0,100,0.00,,---,0.00,VWS V14.01,2013-10-19 17:20:00,
2013-10-19 13:29:00,66.6,66.6,29.71,East,80,0.0,0.0,100,0.00,,---,0.00,VWS V14.01,2013-10-19 17:29:00,
2013-10-19 13:30:00,65.2,65.2,29.75,East,89,0.0,0.0,100,0.00,,---,0.00,VWS V14.01,2013-10-19 17:30:00,
2013-10-19 13:39:00,66.9,66.9,29.71,NE,48,0.0,5.0,100,0.00,,---,0.00,VWS V14.01,2013-10-19 17:39:00,
2013-10-19 13:40:00,65.2,65.2,29.75,East,89,0.0,0.0,100,0.00,,---,0.00,VWS V14.01,2013-10-19 17:40:00,
2013-10-19 13:49:00,67.3,67.3,29.70,ENE,65,0.0,3.0,100,0.00,,---,0.00,VWS V14.01,2013-10-19 17:49:00,
2013-10-19 13:50:00,65.5,65.5,29.74,East,89,0.0,0.0,100,0.00,,---,0.00,VWS V14.01,2013-10-19 17:50:00,
2013-10-19 13:59:00,67.6,67.6,29.69,ENE,58,0.0,0.0,100,0.00,,---,0.00,VWS V14.01,2013-10-19 17:59:00,
2013-10-19 14:00:00,65.6,65.6,29.73,East,88,0.0,1.0,100,0.00,,---,0.00,VWS V14.01,2013-10-19 18:00:00,
2013-10-19 14:10:00,67.9,67.9,29.69,ENE,58,0.0,0.0,100,0.00,,---,0.00,VWS V14.01,2013-10-19 18:10:00,
2013-10-19 14:19:00,68.1,68.1,29.69,ENE,58,0.0,0.0,100,0.00,,---,0.00,VWS V14.01,2013-10-19 18:19:00,
2013-10-19 14:20:00,66.4,66.4,29.72,ENE,78,0.0,3.0,100,0.00,,---,0.00,VWS V14.01,2013-10-19 18:20:00,
2013-10-19 14:29:00,68.1,68.1,29.69,ENE,59,0.0,0.0,100,0.00,,---,0.00,VWS V14.01,2013-10-19 18:29:00,
2013-10-19 14:30:00,66.6,66.6,29.71,East,80,0.0,0.0,100,0.00,,---,0.00,VWS V14.01,2013-10-19 18:30:00,
2013-10-19 14:39:00,68.4,68.4,29.69,ENE,59,0.0,0.0,100,0.00,,---,0.00,VWS V14.01,2013-10-19 18:39:00,
2013-10-19 14:40:00,66.9,66.9,29.71,NE,48,0.0,5.0,100,0.00,,---,0.00,VWS V14.01,2013-10-19 18:40:00,
2013-10-19 14:50:00,68.8,68.8,29.69,ENE,59,0.0,0.0,100,0.00,,---,0.00,VWS V14.01,2013-10-19 18:50:00,
2013-10-19 14:59:00,69.1,69.1,29.69,North,354,0.0,0.0,100,0.00,,---,0.00,VWS V14.01,2013-10-19 18:59:00,
2013-10-19 15:00:00,67.6,67.6,29.69,ENE,58,0.0,0.0,100,0.00,,---,0.00,VWS V14.01,2013-10-19 19:00:00,
2013-10-19 15:10:00,69.1,69.1,29.69,North,354,0.0,0.0,100,0.00,,---,0.00,VWS V14.01,2013-10-19 19:10:00,
2013-10-19 15:19:00,69.3,69.0,29.68,North,354,0.0,0.0,99,0.00,,---,0.00,VWS V14.01,2013-10-19 19:19:00,
2013-10-19 15:20:00,68.1,68.1,29.69,ENE,58,0.0,0.0,100,0.00,,---,0.00,VWS V14.01,2013-10-19 19:20:00,
2013-10-19 15:29:00,69.4,69.4,29.68,North,354,0.0,0.0,100,0.00,,---,0.00,VWS V14.01,2013-10-19 19:29:00,
2013-10-19 15:30:00,68.1,68.1,29.69,ENE,59,0.0,0.0,100,0.00,,---,0.00,VWS V14.01,2013-10-19 19:30:00,
2013-10-19 15:39:00,69.3,69.3,29.68,North,354,0.0,0.0,100,0.00,,---,0.00,VWS V14.01,2013-10-19 19:39:00,
2013-10-19 15:40:00,68.4,68.4,29.69,ENE,59,0.0,0.0,100,0.00,,---,0.00,VWS V14.01,2013-10-19 19:40:00,
2013-10-19 15:49:00,69.3,69.0,29.68,North,0,0.0,0.0,99,0.00,,---,0.00,VWS V14.01,2013-10-19 19:49:00,
2013-10-19 15:50:00,68.8,68.8,29.69,ENE,59,0.0,0.0,100,0.00,,---,0.00,VWS V14.01,2013-10-19 19:50:00,
2013-10-19 15:59:00,69.3,69.0,29.68,North,0,0.0,0.0,99,0.00,,---,0.00,VWS V14.01,2013-10-19 19:59:00,
2013-10-19 16:00:00,69.1,69.1,29.69,North,354,0.0,0.0,100,0.00,,---,0.00,VWS V14.01,2013-10-19 20:00:00,
2013-10-19 16:09:00,69.3,69.3,29.68,North,0,0.0,0.0,100,0.00,,---,0.00,VWS V14.01,2013-10-19 20:09:00,
2013-10-19 16:10:00,69.1,69.1,29.69,North,354,0.0,0.0,100,0.00,,---,0.00,VWS V14.01,2013-10-19 20:10:00,
2013-10-19 16:19:00,69.3,69.3,29.68,North,0,0.0,0.0,100,0.00,,---,0.00,VWS V14.01,2013-10-19 20:19:00,
2013-10-19 16:20:00,69.3,69.0,29.68,North,354,0.0,0.0,99,0.00,,---,0.00,VWS V14.01,2013-10-19 20:20:00,
2013-10-19 16:29:00,68.9,68.9,29.67,North,0,0.0,0.0,100,0.00,,---,0.00,VWS V14.01,2013-10-19 20:29:00,
2013-10-19 16:30:00,69.4,69.4,29.68,North,354,0.0,0.0,100,0.00,,---,0.00,VWS V14.01,2013-10-19 20:30:00,
2013-10-19 16:39:00,68.6,68.6,29.67,North,0,0.0,0.0,100,0.00,,---,0.00,VWS V14.01,2013-10-19 20:39:00,
2013-10-19 16:40:00,69.3,69.3,29.68,North,354,0.0,0.0,100,0.00,,---,0.00,VWS V14.01,2013-10-19 20:40:00,
2013-10-19 16:50:00,68.4,68.4,29.67,NNE,28,0.0,0.0,100,0.00,,---,0.00,VWS V14.01,2013-10-19 20:50:00,
2013-10-19 17:00:00,68.1,68.1,29.68,NNE,28,0.0,0.0,100,0.00,,---,0.00,VWS V14.01,2013-10-19 21:00:00,
2013-10-19 17:09:00,67.9,67.9,29.68,NE,38,0.0,0.0,100,0.00,,---,0.00,VWS V14.01,2013-10-19 21:09:00,
2013-10-19 17:10:00,69.3,69.3,29.68,North,0,0.0,0.0,100,0.00,,---,0.00,VWS V14.01,2013-10-19 21:10:00,
2013-10-19 17:19:00,67.6,67.6,29.69,NE,38,0.0,0.0,100,0.00,,---,0.00,VWS V14.01,2013-10-19 21:19:00,
2013-10-19 17:20:00,69.3,69.3,29.68,North,0,0.0,0.0,100,0.00,,---,0.00,VWS V14.01,2013-10-19 21:20:00,
2013-10-19 17:29:00,67.6,67.6,29.70,NE,38,0.0,0.0,100,0.00,,---,0.00,VWS V14.01,2013-10-19 21:29:00,
2013-10-19 17:30:00,68.9,68.9,29.67,North,0,0.0,0.0,100,0.00,,---,0.00,VWS V14.01,2013-10-19 21:30:00,
2013-10-19 17:39:00,67.4,67.4,29.70,NE,37,0.0,0.0,100,0.00,,---,0.00,VWS V14.01,2013-10-19 21:39:00,
2013-10-19 17:40:00,68.6,68.6,29.67,North,0,0.0,0.0,100,0.00,,---,0.00,VWS V14.01,2013-10-19 21:40:00,
2013-10-19 17:49:00,67.4,67.4,29.71,NE,37,0.0,0.0,100,0.00,,---,0.00,VWS V14.01,2013-10-19 21:49:00,
2013-10-19 17:50:00,68.4,68.4,29.67,NNE,28,0.0,0.0,100,0.00,,---,0.00,VWS V14.01,2013-10-19 21:50:00,
2013-10-19 18:00:00,67.3,67.3,29.70,NE,37,0.0,1.0,100,0.00,,---,0.00,VWS V14.01,2013-10-19 22:00:00,
2013-10-19 18:10:00,67.1,67.1,29.70,NE,37,0.0,0.0,100,0.00,,---,0.00,VWS V14.01,2013-10-19 22:10:00,
2013-10-19 18:19:00,67.1,67.1,29.69,NE,37,0.0,0.0,100,0.00,,---,0.00,VWS V14.01,2013-10-19 22:19:00,
2013-10-19 18:20:00,67.6,67.6,29.69,NE,38,0.0,0.0,100,0.00,,---,0.00,VWS V14.01,2013-10-19 22:20:00,
2013-10-19 18:29:00,66.9,66.9,29.71,NNE,32,0.0,0.0,100,0.00,,---,0.00,VWS V14.01,2013-10-19 22:29:00,
2013-10-19 18:30:00,67.6,67.6,29.70,NE,38,0.0,0.0,100,0.00,,---,0.00,VWS V14.01,2013-10-19 22:30:00,
2013-10-19 18:39:00,66.8,66.8,29.71,NNE,32,0.0,0.0,100,0.00,,---,0.00,VWS V14.01,2013-10-19 22:39:00,
2013-10-19 18:40:00,67.4,67.4,29.70,NE,37,0.0,0.0,100,0.00,,---,0.00,VWS V14.01,2013-10-19 22:40:00,
2013-10-19 18:49:00,66.6,66.6,29.71,NNE,32,0.0,0.0,100,0.00,,---,0.00,VWS V14.01,2013-10-19 22:49:00,
2013-10-19 18:50:00,67.4,67.4,29.71,NE,37,0.0,0.0,100,0.00,,---,0.00,VWS V14.01,2013-10-19 22:50:00,
2013-10-19 19:00:00,66.4,66.4,29.71,NNE,32,0.0,0.0,100,0.01,,---,0.01,VWS V14.01,2013-10-19 23:00:00,
2013-10-19 19:09:00,66.3,66.3,29.71,NNE,32,0.0,0.0,100,0.01,,---,0.01,VWS V14.01,2013-10-19 23:09:00,
2013-10-19 19:10:00,67.1,67.1,29.70,NE,37,0.0,0.0,100,0.00,,---,0.00,VWS V14.01,2013-10-19 23:10:00,
2013-10-19 19:19:00,66.0,66.0,29.70,NNE,32,0.0,0.0,100,0.01,,---,0.01,VWS V14.01,2013-10-19 23:19:00,
2013-10-19 19:20:00,67.1,67.1,29.69,NE,37,0.0,0.0,100,0.00,,---,0.00,VWS V14.01,2013-10-19 23:20:00,
2013-10-19 19:29:00,65.8,65.8,29.70,NNE,32,0.0,0.0,100,0.01,,---,0.01,VWS V14.01,2013-10-19 23:29:00,
2013-10-19 19:30:00,66.9,66.9,29.71,NNE,32,0.0,0.0,100,0.00,,---,0.00,VWS V14.01,2013-10-19 23:30:00,
2013-10-19 19:39:00,65.6,65.6,29.70,NNE,32,0.0,0.0,100,0.01,,---,0.01,VWS V14.01,2013-10-19 23:39:00,
2013-10-19 19:40:00,66.8,66.8,29.71,NNE,32,0.0,0.0,100,0.00,,---,0.00,VWS V14.01,2013-10-19 23:40:00,
2013-10-19 19:49:00,65.5,65.5,29.71,NNE,32,0.0,0.0,100,0.01,,---,0.01,VWS V14.01,2013-10-19 23:49:00,
2013-10-19 19:50:00,66.6,66.6,29.71,NNE,32,0.0,0.0,100,0.00,,---,0.00,VWS V14.01,2013-10-19 23:50:00,
2013-10-19 20:00:00,65.3,65.3,29.72,NNE,31,0.0,0.0,100,0.01,,---,0.01,VWS V14.01,2013-10-20 00:00:00,
2013-10-19 20:10:00,65.2,65.2,29.72,NNE,31,0.0,0.0,100,0.00,,---,0.01,VWS V14.01,2013-10-20 00:10:00,
2013-10-19 20:19:00,65.0,65.0,29.71,NNE,31,0.0,0.0,100,0.00,,---,0.01,VWS V14.01,2013-10-20 00:19:00,
2013-10-19 20:20:00,66.0,66.0,29.70,NNE,32,0.0,0.0,100,0.01,,---,0.01,VWS V14.01,2013-10-20 00:20:00,
2013-10-19 20:29:00,64.8,64.8,29.71,NNE,31,0.0,0.0,100,0.00,,---,0.01,VWS V14.01,2013-10-20 00:29:00,
2013-10-19 20:30:00,65.8,65.8,29.70,NNE,32,0.0,0.0,100,0.01,,---,0.01,VWS V14.01,2013-10-20 00:30:00,
2013-10-19 20:39:00,64.5,64.5,29.71,NNE,31,0.0,0.0,100,0.00,,---,0.01,VWS V14.01,2013-10-20 00:39:00,
2013-10-19 20:40:00,65.6,65.6,29.70,NNE,32,0.0,0.0,100,0.01,,---,0.01,VWS V14.01,2013-10-20 00:40:00,
2013-10-19 20:49:00,64.3,64.3,29.72,NNE,31,0.0,0.0,100,0.00,,---,0.01,VWS V14.01,2013-10-20 00:49:00,
2013-10-19 20:50:00,65.5,65.5,29.71,NNE,32,0.0,0.0,100,0.01,,---,0.01,VWS V14.01,2013-10-20 00:50:00,
2013-10-19 21:00:00,64.0,64.0,29.72,NNE,31,0.0,0.0,100,0.00,,---,0.01,VWS V14.01,2013-10-20 01:00:00,
2013-10-19 21:10:00,63.9,63.9,29.72,NNE,31,0.0,0.0,100,0.00,,---,0.01,VWS V14.01,2013-10-20 01:10:00,
2013-10-19 21:19:00,63.7,63.7,29.72,NNE,31,0.0,0.0,100,0.00,,---,0.01,VWS V14.01,2013-10-20 01:19:00,
2013-10-19 21:20:00,65.0,65.0,29.71,NNE,31,0.0,0.0,100,0.00,,---,0.01,VWS V14.01,2013-10-20 01:20:00,
2013-10-19 21:29:00,63.5,63.5,29.73,NNW,335,0.0,1.0,100,0.00,,---,0.01,VWS V14.01,2013-10-20 01:29:00,
2013-10-19 21:30:00,64.8,64.8,29.71,NNE,31,0.0,0.0,100,0.00,,---,0.01,VWS V14.01,2013-10-20 01:30:00,
2013-10-19 21:39:00,63.4,63.4,29.73,NNW,335,0.0,0.0,100,0.00,,---,0.01,VWS V14.01,2013-10-20 01:39:00,
2013-10-19 21:40:00,64.5,64.5,29.71,NNE,31,0.0,0.0,100,0.00,,---,0.01,VWS V14.01,2013-10-20 01:40:00,
2013-10-19 21:50:00,63.2,63.2,29.73,WNW,298,0.0,0.0,100,0.00,,---,0.01,VWS V14.01,2013-10-20 01:50:00,
2013-10-19 21:59:00,63.1,63.1,29.74,WNW,298,0.0,0.0,100,0.00,,---,0.01,VWS V14.01,2013-10-20 01:59:00,
2013-10-19 22:00:00,64.0,64.0,29.72,NNE,31,0.0,0.0,100,0.00,,---,0.01,VWS V14.01,2013-10-20 02:00:00,
2013-10-19 22:09:00,62.9,62.9,29.74,WNW,298,0.0,0.0,100,0.00,,---,0.01,VWS V14.01,2013-10-20 02:09:00,
2013-10-19 22:10:00,63.9,63.9,29.72,NNE,31,0.0,0.0,100,0.00,,---,0.01,VWS V14.01,2013-10-20 02:10:00,
2013-10-19 22:19:00,62.7,62.7,29.74,WNW,298,0.0,0.0,100,0.00,,---,0.01,VWS V14.01,2013-10-20 02:19:00,
2013-10-19 22:20:00,63.7,63.7,29.72,NNE,31,0.0,0.0,100,0.00,,---,0.01,VWS V14.01,2013-10-20 02:20:00,
2013-10-19 22:30:00,62.4,62.4,29.74,WNW,298,0.0,0.0,100,0.00,,---,0.01,VWS V14.01,2013-10-20 02:30:00,
2013-10-19 22:40:00,62.1,62.1,29.74,SW,215,0.0,0.0,100,0.00,,---,0.01,VWS V14.01,2013-10-20 02:40:00,
2013-10-19 22:49:00,61.6,61.6,29.74,SW,215,0.0,0.0,100,0.00,,---,0.01,VWS V14.01,2013-10-20 02:49:00,
2013-10-19 22:50:00,63.2,63.2,29.73,WNW,298,0.0,0.0,100,0.00,,---,0.01,VWS V14.01,2013-10-20 02:50:00,
2013-10-19 22:59:00,61.3,61.3,29.74,SW,215,0.0,0.0,100,0.00,,---,0.01,VWS V14.01,2013-10-20 02:59:00,
2013-10-19 23:00:00,63.1,63.1,29.74,WNW,298,0.0,0.0,100,0.00,,---,0.01,VWS V14.01,2013-10-20 03:00:00,
2013-10-19 23:09:00,61.2,61.2,29.74,SW,215,0.0,0.0,100,0.00,,---,0.01,VWS V14.01,2013-10-20 03:09:00,
2013-10-19 23:10:00,62.9,62.9,29.74,WNW,298,0.0,0.0,100,0.00,,---,0.01,VWS V14.01,2013-10-20 03:10:00,
2013-10-19 23:19:00,61.2,61.2,29.74,SW,215,0.0,0.0,100,0.00,,---,0.01,VWS V14.01,2013-10-20 03:19:00,
2013-10-19 23:20:00,62.7,62.7,29.74,WNW,298,0.0,0.0,100,0.00,,---,0.01,VWS V14.01,2013-10-20 03:20:00,
2013-10-19 23:29:00,61.0,61.0,29.75,SW,215,0.0,0.0,100,0.00,,---,0.01,VWS V14.01,2013-10-20 03:29:00,
2013-10-19 23:30:00,62.4,62.4,29.74,WNW,298,0.0,0.0,100,0.00,,---,0.01,VWS V14.01,2013-10-20 03:30:00,
2013-10-19 23:39:00,60.7,60.7,29.75,SW,215,0.0,0.0,100,0.00,,---,0.01,VWS V14.01,2013-10-20 03:39:00,
2013-10-19 23:40:00,62.1,62.1,29.74,SW,215,0.0,0.0,100,0.00,,---,0.01,VWS V14.01,2013-10-20 03:40:00,
2013-10-19 23:49:00,60.5,60.5,29.75,SW,215,0.0,0.0,100,0.00,,---,0.01,VWS V14.01,2013-10-20 03:49:00,
2013-10-19 23:50:00,61.6,61.6,29.74,SW,215,0.0,0.0,100,0.00,,---,0.01,VWS V14.01,2013-10-20 03:50:00,